Time;durP1;ratioP1;P1;durP2;ratioP2;P2;SDS_P1;SDS_P2;PMS_P1;PMS_P2;Temp;Humidity;BMP_temperature;BMP_pressure;BME280_temperature;BME280_humidity;BME280_pressure;Samples;Min_cycle;Max_cycle;Signal;HPM_P1;HPM_P2
2023/03/08 00:01:18;;;;;;;;;;;;;;;21.47;33.22;99973.20;103693;1308;61368;-81
2023/03/08 00:03:44;;;;;;;;;;;;;;;21.47;33.16;99965.89;103667;1310;61402;-83
2023/03/08 00:06:11;;;;;;;;;;;;;;;21.48;33.22;99968.20;103700;1308;61458;-82
2023/03/08 00:08:37;;;;;;;;;;;;;;;21.47;33.00;99969.09;103675;1309;75917;-82
2023/03/08 00:11:08;;;;;;;;;;;;;;;21.47;33.26;99965.70;103625;1308;61256;-82
2023/03/08 00:13:34;;;;;;;;;;;;;;;21.47;33.12;99970.55;103672;1312;61285;-82
2023/03/08 00:16:00;;;;;;;;;;;;;;;21.48;33.21;99975.69;103678;1308;61326;-81
2023/03/08 00:18:26;;;;;;;;;;;;;;;21.48;33.17;99979.08;103656;1308;61339;-81
2023/03/08 00:21:02;;;;;;;;;;;;;;;21.48;33.31;99974.81;103875;1309;61388;-81
2023/03/08 00:23:28;;;;;;;;;;;;;;;21.47;33.25;99970.51;103865;1309;61308;-81
2023/03/08 00:25:53;;;;;;;;;;;;;;;21.47;33.24;99970.53;103698;1314;61423;-81
2023/03/08 00:28:19;;;;;;;;;;;;;;;21.47;33.20;99965.50;103630;1309;61388;-82
2023/03/08 00:30:45;;;;;;;;;;;;;;;21.47;33.26;99968.19;103649;1308;61283;-82
2023/03/08 00:33:11;;;;;;;;;;;;;;;21.48;33.33;99969.61;103675;1308;61769;-82
2023/03/08 00:35:36;;;;;;;;;;;;;;;21.48;33.42;99972.10;103702;1308;61348;-82
2023/03/08 00:38:02;;;;;;;;;;;;;;;21.48;33.26;99971.02;103593;1309;73424;-82
2023/03/08 00:40:27;;;;;;;;;;;;;;;21.48;33.30;99973.37;103676;1308;61314;-82
2023/03/08 00:42:53;;;;;;;;;;;;;;;21.48;33.30;99971.76;103664;1308;61396;-82
2023/03/08 00:45:18;;;;;;;;;;;;;;;21.48;33.16;99970.52;103663;1308;61344;-83
2023/03/08 00:47:44;;;;;;;;;;;;;;;21.48;33.23;99971.21;103672;1309;61410;-82
2023/03/08 00:50:10;;;;;;;;;;;;;;;21.47;33.30;99969.27;103623;1308;74338;-82
2023/03/08 00:52:35;;;;;;;;;;;;;;;21.47;33.32;99961.91;103901;1313;61455;-82
2023/03/08 00:55:01;;;;;;;;;;;;;;;21.47;33.33;99959.44;103654;1308;61340;-82
2023/03/08 00:57:27;;;;;;;;;;;;;;;21.48;33.51;99955.11;103873;1308;61224;-83
2023/03/08 00:59:52;;;;;;;;;;;;;;;21.48;33.42;99955.64;103639;1309;61410;-82
2023/03/08 01:02:18;;;;;;;;;;;;;;;21.48;33.36;99958.67;103694;1314;61284;-82
2023/03/08 01:04:44;;;;;;;;;;;;;;;21.48;33.41;99956.52;103869;1308;75517;-82
2023/03/08 01:07:09;;;;;;;;;;;;;;;21.48;33.49;99954.02;103677;1309;61294;-82
2023/03/08 01:09:35;;;;;;;;;;;;;;;21.48;33.40;99955.42;103422;1312;61291;-81
2023/03/08 01:12:00;;;;;;;;;;;;;;;21.48;33.32;99953.33;103438;1311;61401;-83
2023/03/08 01:14:26;;;;;;;;;;;;;;;21.48;33.35;99951.50;103469;1311;61385;-83
2023/03/08 01:16:51;;;;;;;;;;;;;;;21.48;33.29;99950.27;103416;1311;74603;-82
2023/03/08 01:19:17;;;;;;;;;;;;;;;21.48;33.43;99948.13;103414;1317;61768;-82
2023/03/08 01:21:43;;;;;;;;;;;;;;;21.48;33.41;99943.61;103339;1314;61389;-83
2023/03/08 01:24:08;;;;;;;;;;;;;;;21.48;33.39;99945.59;103422;1311;61280;-82
2023/03/08 01:26:34;;;;;;;;;;;;;;;21.48;33.38;99949.86;103457;1311;61263;-82
2023/03/08 01:29:00;;;;;;;;;;;;;;;21.48;33.39;99946.13;103422;1316;75629;-82
2023/03/08 01:31:26;;;;;;;;;;;;;;;21.48;33.43;99946.86;103456;1311;61339;-82
2023/03/08 01:33:52;;;;;;;;;;;;;;;21.48;33.43;99945.05;103463;1315;61240;-82
2023/03/08 01:36:21;;;;;;;;;;;;;;;21.48;33.43;99939.52;103412;1314;61267;-82
2023/03/08 01:38:46;;;;;;;;;;;;;;;21.48;33.52;99942.91;103430;1311;74338;-82
2023/03/08 01:41:14;;;;;;;;;;;;;;;21.49;33.46;99945.38;103666;1309;61166;-82
2023/03/08 01:43:40;;;;;;;;;;;;;;;21.49;33.47;99943.40;103693;1311;61153;-82
2023/03/08 01:46:18;;;;;;;;;;;;;;;21.49;33.51;99946.42;103685;1312;61393;-82
2023/03/08 01:48:49;;;;;;;;;;;;;;;21.49;33.55;99949.08;103878;1308;75367;-81
2023/03/08 01:51:16;;;;;;;;;;;;;;;21.49;33.49;99947.30;103877;1308;61278;-82
2023/03/08 01:53:42;;;;;;;;;;;;;;;21.49;33.48;99944.98;103880;1309;61205;-82
2023/03/08 01:56:08;;;;;;;;;;;;;;;21.49;33.51;99940.48;103679;1308;61821;-82
2023/03/08 01:58:34;;;;;;;;;;;;;;;21.49;33.58;99938.70;103680;1312;61317;-82
2023/03/08 02:01:02;;;;;;;;;;;;;;;21.49;33.39;99936.59;103684;1309;61287;-82
2023/03/08 02:03:27;;;;;;;;;;;;;;;21.48;33.57;99938.76;103886;1308;61151;-82
2023/03/08 02:05:53;;;;;;;;;;;;;;;21.49;33.49;99934.23;103664;1309;61452;-81
2023/03/08 02:08:19;;;;;;;;;;;;;;;21.49;33.53;99936.21;103693;1308;61297;-81
2023/03/08 02:10:44;;;;;;;;;;;;;;;21.49;33.62;99935.31;104010;1308;59774;-81
2023/03/08 02:13:10;;;;;;;;;;;;;;;21.49;33.51;99938.16;103930;1309;61310;-82
2023/03/08 02:15:35;;;;;;;;;;;;;;;21.49;33.54;99933.86;103661;1308;61317;-79
2023/03/08 02:18:01;;;;;;;;;;;;;;;21.50;33.60;99936.48;103891;1309;61263;-81
2023/03/08 02:20:35;;;;;;;;;;;;;;;21.49;33.54;99936.52;103682;1309;61404;-81
2023/03/08 02:23:08;;;;;;;;;;;;;;;21.50;33.60;99938.46;103660;1309;61310;-82
2023/03/08 02:25:35;;;;;;;;;;;;;;;21.49;33.58;99937.42;103855;1308;60925;-82
2023/03/08 02:28:00;;;;;;;;;;;;;;;21.49;33.58;99938.84;103864;1308;73552;-82
2023/03/08 02:30:28;;;;;;;;;;;;;;;21.49;33.58;99937.43;103615;1309;61458;-83
2023/03/08 02:32:54;;;;;;;;;;;;;;;21.49;33.61;99934.58;103603;1308;61330;-83
2023/03/08 02:35:19;;;;;;;;;;;;;;;21.49;33.53;99936.73;103707;1309;62541;-82
2023/03/08 02:37:45;;;;;;;;;;;;;;;21.49;33.64;99941.02;103619;1308;61311;-83
2023/03/08 02:40:11;;;;;;;;;;;;;;;21.49;33.65;99944.05;103659;1312;61397;-83
2023/03/08 02:42:38;;;;;;;;;;;;;;;21.49;33.63;99945.69;103654;1308;61364;-82
2023/03/08 02:45:08;;;;;;;;;;;;;;;21.48;33.68;99943.77;103670;1308;61301;-83
2023/03/08 02:47:33;;;;;;;;;;;;;;;21.49;33.58;99945.31;103874;1308;73061;-82
2023/03/08 02:49:59;;;;;;;;;;;;;;;21.49;33.56;99943.16;103908;1308;61451;-82
2023/03/08 02:52:24;;;;;;;;;;;;;;;21.49;33.56;99940.15;103891;1311;61397;-82
2023/03/08 02:54:50;;;;;;;;;;;;;;;21.49;33.52;99937.27;103908;1308;61279;-82
2023/03/08 02:57:16;;;;;;;;;;;;;;;21.49;33.66;99937.06;103722;1312;59387;-82
2023/03/08 02:59:41;;;;;;;;;;;;;;;21.49;33.63;99933.73;103705;1308;61765;-83
2023/03/08 03:02:07;;;;;;;;;;;;;;;21.48;33.42;99936.06;103701;1312;61292;-82
2023/03/08 03:04:32;;;;;;;;;;;;;;;21.49;33.60;99932.48;103900;1308;61457;-82
2023/03/08 03:06:59;;;;;;;;;;;;;;;21.48;33.66;99933.92;103663;1314;61435;-83
2023/03/08 03:09:25;;;;;;;;;;;;;;;21.48;33.47;99933.75;103892;1308;61340;-83
2023/03/08 03:11:51;;;;;;;;;;;;;;;21.48;33.55;99932.67;103872;1312;61892;-81
2023/03/08 03:14:16;;;;;;;;;;;;;;;21.48;33.61;99933.41;103895;1308;61281;-82
2023/03/08 03:16:42;;;;;;;;;;;;;;;21.49;33.61;99935.70;103752;1308;61298;-81
2023/03/08 03:19:07;;;;;;;;;;;;;;;21.48;33.53;99932.48;103655;1312;61336;-81
2023/03/08 03:21:33;;;;;;;;;;;;;;;21.48;33.63;99935.53;103689;1308;61307;-81
2023/03/08 03:23:59;;;;;;;;;;;;;;;21.48;33.55;99939.88;103698;1308;61431;-81
2023/03/08 03:26:24;;;;;;;;;;;;;;;21.49;33.58;99942.15;103617;1308;61427;-81
2023/03/08 03:28:53;;;;;;;;;;;;;;;21.48;33.53;99946.81;103684;1309;61318;-81
2023/03/08 03:31:19;;;;;;;;;;;;;;;21.48;33.63;99942.90;103665;1310;61372;-81
2023/03/08 03:33:45;;;;;;;;;;;;;;;21.48;33.61;99944.70;103863;1308;61245;-82
2023/03/08 03:36:11;;;;;;;;;;;;;;;21.48;33.72;99940.73;103871;1308;61330;-82
2023/03/08 03:38:37;;;;;;;;;;;;;;;21.48;33.64;99932.89;103666;1308;61261;-82
2023/03/08 03:41:03;;;;;;;;;;;;;;;21.48;33.68;99935.77;103886;1312;61297;-82
2023/03/08 03:43:29;;;;;;;;;;;;;;;21.48;33.54;99931.61;103646;1311;61330;-82
2023/03/08 03:45:59;;;;;;;;;;;;;;;21.48;33.65;99935.03;103752;1308;59423;-81
2023/03/08 03:48:24;;;;;;;;;;;;;;;21.49;33.69;99939.30;103620;1311;61333;-81
2023/03/08 03:50:57;;;;;;;;;;;;;;;21.48;33.56;99940.59;103876;1309;61306;-82
2023/03/08 03:53:23;;;;;;;;;;;;;;;21.48;33.57;99945.23;103865;1309;72542;-81
2023/03/08 03:55:48;;;;;;;;;;;;;;;21.48;33.55;99949.72;103680;1308;61342;-82
2023/03/08 03:58:14;;;;;;;;;;;;;;;21.49;33.75;99948.23;103902;1308;61390;-82
2023/03/08 04:00:39;;;;;;;;;;;;;;;21.48;33.75;99948.25;103631;1309;61385;-82
2023/03/08 04:03:05;;;;;;;;;;;;;;;21.48;33.62;99943.95;103667;1308;62008;-82
2023/03/08 04:05:30;;;;;;;;;;;;;;;21.48;33.65;99940.96;103713;1309;61297;-82
2023/03/08 04:07:56;;;;;;;;;;;;;;;21.48;33.78;99940.23;103878;1308;61336;-82
2023/03/08 04:10:22;;;;;;;;;;;;;;;21.48;33.60;99945.23;103641;1308;61314;-81
2023/03/08 04:12:48;;;;;;;;;;;;;;;21.48;33.83;99944.50;103895;1308;61262;-82
2023/03/08 04:15:14;;;;;;;;;;;;;;;21.48;33.73;99941.30;103694;1308;61495;-82
2023/03/08 04:17:39;;;;;;;;;;;;;;;21.48;33.60;99943.08;103670;1314;61304;-82
2023/03/08 04:20:05;;;;;;;;;;;;;;;21.48;33.77;99949.17;103918;1309;61384;-82
2023/03/08 04:22:31;;;;;;;;;;;;;;;21.48;33.56;99950.42;103639;1309;61256;-82
2023/03/08 04:24:56;;;;;;;;;;;;;;;21.48;33.47;99954.36;103699;1308;61371;-83
2023/03/08 04:27:22;;;;;;;;;;;;;;;21.48;33.62;99952.00;103695;1308;61268;-82
2023/03/08 04:29:48;;;;;;;;;;;;;;;21.48;33.58;99949.34;103654;1308;61393;-82
2023/03/08 04:32:13;;;;;;;;;;;;;;;21.48;33.56;99946.10;103877;1308;61199;-82
2023/03/08 04:34:39;;;;;;;;;;;;;;;21.48;33.68;99950.05;103754;1309;61306;-82
2023/03/08 04:37:05;;;;;;;;;;;;;;;21.49;33.59;99954.50;103706;1309;61309;-82
2023/03/08 04:39:31;;;;;;;;;;;;;;;21.48;33.63;99962.23;103694;1308;61399;-82
2023/03/08 04:41:56;;;;;;;;;;;;;;;21.48;33.60;99970.48;103638;1308;61447;-81
2023/03/08 04:44:22;;;;;;;;;;;;;;;21.48;33.65;99972.45;103674;1308;61366;-81
2023/03/08 04:46:47;;;;;;;;;;;;;;;21.48;33.63;99975.30;103637;1308;61243;-81
2023/03/08 04:49:13;;;;;;;;;;;;;;;21.48;33.73;99975.84;103918;1308;61563;-81
2023/03/08 04:51:39;;;;;;;;;;;;;;;21.48;33.68;99977.61;103923;1308;61303;-82
2023/03/08 04:54:05;;;;;;;;;;;;;;;21.48;33.72;99981.36;103894;1308;61333;-83
2023/03/08 04:56:30;;;;;;;;;;;;;;;21.48;33.65;99980.30;103710;1308;61336;-83
2023/03/08 04:58:56;;;;;;;;;;;;;;;21.47;33.58;99978.59;103673;1308;61231;-83
2023/03/08 05:01:22;;;;;;;;;;;;;;;21.44;33.66;99976.20;103892;1308;61291;-83
2023/03/08 05:03:50;;;;;;;;;;;;;;;21.39;33.48;99987.91;103753;1308;61403;-82
2023/03/08 05:06:16;;;;;;;;;;;;;;;21.34;33.52;99995.48;103638;1308;75389;-82
2023/03/08 05:08:41;;;;;;;;;;;;;;;21.29;33.51;100000.52;103698;1308;61547;-82
2023/03/08 05:11:08;;;;;;;;;;;;;;;21.27;33.44;99999.09;103611;1308;61294;-82
2023/03/08 05:13:35;;;;;;;;;;;;;;;21.25;33.33;100005.19;103641;1313;61431;-80
2023/03/08 05:16:01;;;;;;;;;;;;;;;21.23;33.36;100004.75;103788;1308;61339;-82
2023/03/08 05:18:27;;;;;;;;;;;;;;;21.23;33.23;100008.73;103668;1308;61323;-82
2023/03/08 05:20:53;;;;;;;;;;;;;;;21.23;33.25;99999.61;103651;1308;61653;-82
2023/03/08 05:23:22;;;;;;;;;;;;;;;21.23;33.17;100001.95;103622;1308;59365;-82
2023/03/08 05:25:51;;;;;;;;;;;;;;;21.22;33.23;100002.91;103831;1308;75420;-82
2023/03/08 05:28:17;;;;;;;;;;;;;;;21.19;33.15;100008.39;103571;1311;62080;-82
2023/03/08 05:30:43;;;;;;;;;;;;;;;21.15;33.19;100010.14;103590;1308;61394;-80
2023/03/08 05:33:11;;;;;;;;;;;;;;;21.09;32.97;100007.75;103623;1308;60754;-81
2023/03/08 05:35:36;;;;;;;;;;;;;;;21.04;33.09;100011.72;103480;1308;75549;-82
2023/03/08 05:38:03;;;;;;;;;;;;;;;21.00;33.01;100007.64;103569;1308;61345;-81
2023/03/08 05:40:29;;;;;;;;;;;;;;;20.95;33.04;100008.21;103710;1308;61342;-81
2023/03/08 05:42:54;;;;;;;;;;;;;;;20.91;33.03;100014.23;103359;1308;61332;-81
2023/03/08 05:45:21;;;;;;;;;;;;;;;20.87;33.12;100013.36;103472;1308;61470;-81
2023/03/08 05:47:48;;;;;;;;;;;;;;;20.84;33.10;100018.25;102915;1311;62272;-81
2023/03/08 05:50:14;;;;;;;;;;;;;;;20.79;33.04;100014.17;102889;1311;61436;-82
2023/03/08 05:52:41;;;;;;;;;;;;;;;20.74;32.91;100021.58;102816;1311;61345;-80
2023/03/08 05:55:07;;;;;;;;;;;;;;;20.69;33.08;100022.85;102685;1311;61328;-82
2023/03/08 05:57:33;;;;;;;;;;;;;;;20.64;32.87;100025.89;102645;1312;61745;-82
2023/03/08 05:59:59;;;;;;;;;;;;;;;20.59;32.81;100030.98;102664;1311;61426;-82
2023/03/08 06:02:27;;;;;;;;;;;;;;;20.54;32.84;100031.90;102492;1311;61693;-82
2023/03/08 06:04:52;;;;;;;;;;;;;;;20.51;32.75;100036.24;102395;1312;61563;-80
2023/03/08 06:07:19;;;;;;;;;;;;;;;20.51;32.77;100038.27;102569;1311;59785;-80
2023/03/08 06:09:45;;;;;;;;;;;;;;;20.51;32.96;100036.99;102482;1311;61401;-81
2023/03/08 06:12:11;;;;;;;;;;;;;;;20.51;33.08;100039.31;102657;1311;61406;-80
2023/03/08 06:14:37;;;;;;;;;;;;;;;20.52;33.08;100040.25;102641;1312;61508;-80
2023/03/08 06:17:02;;;;;;;;;;;;;;;20.55;33.17;100045.95;102672;1311;63148;-80
2023/03/08 06:19:28;;;;;;;;;;;;;;;20.60;33.01;100043.96;102741;1308;61312;-80
2023/03/08 06:21:53;;;;;;;;;;;;;;;20.63;32.96;100045.09;102963;1308;61397;-80
2023/03/08 06:24:19;;;;;;;;;;;;;;;20.67;32.86;100047.67;102746;1308;61320;-80
2023/03/08 06:26:45;;;;;;;;;;;;;;;20.71;33.04;100051.33;102904;1308;61359;-80
2023/03/08 06:29:11;;;;;;;;;;;;;;;20.74;32.81;100052.09;102829;1308;61637;-80
2023/03/08 06:31:36;;;;;;;;;;;;;;;20.80;32.95;100051.68;103065;1309;62534;-80
2023/03/08 06:34:02;;;;;;;;;;;;;;;20.85;32.91;100055.52;102823;1308;61288;-80
2023/03/08 06:36:28;;;;;;;;;;;;;;;20.91;32.77;100058.73;102730;1308;61349;-80
2023/03/08 06:38:53;;;;;;;;;;;;;;;20.95;32.74;100059.02;102775;1308;61429;-80
2023/03/08 06:41:19;;;;;;;;;;;;;;;20.98;32.73;100053.38;102827;1308;61310;-80
2023/03/08 06:43:45;;;;;;;;;;;;;;;21.01;32.79;100057.44;102821;1308;61262;-80
2023/03/08 06:46:12;;;;;;;;;;;;;;;21.05;32.88;100063.42;102780;1309;61446;-79
2023/03/08 06:48:37;;;;;;;;;;;;;;;21.08;32.96;100065.59;104366;1308;73858;-80
2023/03/08 06:51:03;;;;;;;;;;;;;;;21.11;32.82;100067.15;104320;1309;59644;-80
2023/03/08 06:53:29;;;;;;;;;;;;;;;21.14;32.99;100067.30;102859;1308;59707;-82
2023/03/08 06:55:55;;;;;;;;;;;;;;;21.09;32.78;100068.40;102688;1309;61413;-81
2023/03/08 06:58:23;;;;;;;;;;;;;;;21.00;32.70;100070.59;102718;1311;61340;-81
2023/03/08 07:00:50;;;;;;;;;;;;;;;20.96;32.96;100076.52;102681;1308;74372;-81
2023/03/08 07:03:16;;;;;;;;;;;;;;;20.95;33.06;100077.13;102314;1309;632456;-82
2023/03/08 07:05:42;;;;;;;;;;;;;;;20.94;32.99;100078.23;102782;1308;61422;-80
2023/03/08 07:08:07;;;;;;;;;;;;;;;20.92;33.12;100078.72;102966;1308;61364;-81
2023/03/08 07:10:33;;;;;;;;;;;;;;;20.91;33.18;100083.45;102996;1309;61340;-80
2023/03/08 07:12:59;;;;;;;;;;;;;;;20.90;32.98;100084.45;102965;1309;61371;-80
2023/03/08 07:15:24;;;;;;;;;;;;;;;20.90;32.88;100086.91;102849;1308;61269;-80
2023/03/08 07:17:50;;;;;;;;;;;;;;;20.92;33.01;100087.52;103043;1308;61324;-80
2023/03/08 07:20:16;;;;;;;;;;;;;;;20.95;32.82;100091.25;102614;1311;61664;-80
2023/03/08 07:22:43;;;;;;;;;;;;;;;20.98;33.01;100091.20;102918;1309;61262;-80
2023/03/08 07:25:15;;;;;;;;;;;;;;;21.01;32.89;100093.27;103059;1308;61348;-80
2023/03/08 07:27:41;;;;;;;;;;;;;;;21.03;32.94;100088.95;104429;1309;61046;-81
2023/03/08 07:30:11;;;;;;;;;;;;;;;21.06;32.79;100091.75;104387;1308;59532;-80
2023/03/08 07:32:38;;;;;;;;;;;;;;;21.08;33.11;100094.74;102991;1308;74540;-81
2023/03/08 07:35:04;;;;;;;;;;;;;;;21.11;33.00;100092.96;102836;1309;61227;-82
2023/03/08 07:37:30;;;;;;;;;;;;;;;21.12;32.95;100093.63;103087;1308;61407;-82
2023/03/08 07:39:55;;;;;;;;;;;;;;;21.10;32.85;100091.04;103152;1308;61298;-81
2023/03/08 07:42:21;;;;;;;;;;;;;;;21.08;32.91;100090.11;102948;1309;61474;-81
2023/03/08 07:44:47;;;;;;;;;;;;;;;21.06;32.93;100087.44;103126;1309;61353;-82
2023/03/08 07:47:13;;;;;;;;;;;;;;;21.04;32.64;100095.08;103398;1308;61415;-82
2023/03/08 07:49:38;;;;;;;;;;;;;;;21.03;32.59;100096.45;103555;1309;61464;-83
2023/03/08 07:52:04;;;;;;;;;;;;;;;21.02;32.68;100096.89;103690;1308;61447;-82
2023/03/08 07:54:29;;;;;;;;;;;;;;;21.01;32.62;100095.16;103453;1308;59199;-84
2023/03/08 07:56:55;;;;;;;;;;;;;;;20.95;32.63;100098.52;103545;1308;59749;-80
2023/03/08 07:59:21;;;;;;;;;;;;;;;20.87;32.59;100098.09;102680;1308;61359;-81
2023/03/08 08:01:49;;;;;;;;;;;;;;;20.85;32.87;100097.23;102668;1309;61160;-80
2023/03/08 08:04:14;;;;;;;;;;;;;;;20.87;33.12;100096.52;102784;1309;72719;-80
2023/03/08 08:06:40;;;;;;;;;;;;;;;20.88;33.23;100101.72;102749;1308;61319;-81
2023/03/08 08:09:06;;;;;;;;;;;;;;;20.87;33.37;100106.12;102797;1309;61524;-81
2023/03/08 08:11:33;;;;;;;;;;;;;;;20.88;33.40;100106.44;102623;1308;61227;-81
2023/03/08 08:13:58;;;;;;;;;;;;;;;20.87;33.55;100105.77;102766;1308;61439;-81
2023/03/08 08:16:25;;;;;;;;;;;;;;;20.87;33.65;100101.65;102614;1309;60559;-81
2023/03/08 08:18:51;;;;;;;;;;;;;;;20.88;33.43;100099.31;102663;1309;61393;-81
2023/03/08 08:21:17;;;;;;;;;;;;;;;20.87;33.42;100101.54;102604;1308;61534;-80
2023/03/08 08:23:42;;;;;;;;;;;;;;;20.87;33.61;100105.09;102875;1308;61383;-80
2023/03/08 08:26:09;;;;;;;;;;;;;;;20.88;33.56;100103.21;102963;1308;73621;-81
2023/03/08 08:28:35;;;;;;;;;;;;;;;20.90;33.47;100104.40;103399;1308;74682;-80
2023/03/08 08:31:06;;;;;;;;;;;;;;;20.88;33.54;100112.21;103342;1308;59522;-80
2023/03/08 08:33:31;;;;;;;;;;;;;;;20.86;33.39;100111.11;102830;1308;61412;-81
2023/03/08 08:35:57;;;;;;;;;;;;;;;20.85;33.39;100113.08;102706;1308;61432;-79
2023/03/08 08:38:23;;;;;;;;;;;;;;;20.86;33.60;100114.13;102861;1308;61308;-79
2023/03/08 08:40:48;;;;;;;;;;;;;;;20.86;33.51;100106.58;102928;1308;61416;-81
2023/03/08 08:43:14;;;;;;;;;;;;;;;20.86;33.42;100103.90;102807;1309;61283;-80
2023/03/08 08:45:43;;;;;;;;;;;;;;;20.87;33.49;100107.38;102562;1312;61317;-82
2023/03/08 08:48:08;;;;;;;;;;;;;;;20.90;33.32;100105.01;102772;1309;73631;-80
2023/03/08 08:50:34;;;;;;;;;;;;;;;20.90;33.36;100104.29;102753;1309;61483;-80
2023/03/08 08:53:00;;;;;;;;;;;;;;;20.91;33.47;100105.27;102579;1311;61273;-80
2023/03/08 08:55:25;;;;;;;;;;;;;;;20.92;33.42;100108.27;102614;1309;63062;-80
2023/03/08 08:57:51;;;;;;;;;;;;;;;20.89;33.43;100106.19;102717;1309;61371;-82
2023/03/08 09:00:42;;;;;;;;;;;;;;;20.89;33.51;100102.97;102669;1310;73619;-81
2023/03/08 09:03:09;;;;;;;;;;;;;;;20.90;33.47;100101.58;101836;1317;74476;-80
2023/03/08 09:05:37;;;;;;;;;;;;;;;20.91;33.53;100099.77;101760;1318;61683;-81
2023/03/08 09:08:02;;;;;;;;;;;;;;;20.92;33.59;100098.40;101741;1317;61382;-81
2023/03/08 09:10:29;;;;;;;;;;;;;;;20.93;33.67;100101.17;101786;1317;61394;-80
2023/03/08 09:12:54;;;;;;;;;;;;;;;20.95;33.81;100096.96;103418;1317;60740;-81
2023/03/08 09:15:23;;;;;;;;;;;;;;;20.96;34.00;100098.33;103521;1317;59553;-80
2023/03/08 09:17:48;;;;;;;;;;;;;;;20.98;33.95;100095.48;103535;1317;61251;-81
2023/03/08 09:20:14;;;;;;;;;;;;;;;20.99;33.91;100095.73;103600;1317;59398;-80
2023/03/08 09:22:40;;;;;;;;;;;;;;;20.95;33.72;100087.84;103621;1316;59337;-81
2023/03/08 09:25:06;;;;;;;;;;;;;;;20.92;33.63;100085.33;103751;1316;59520;-81
2023/03/08 09:27:32;;;;;;;;;;;;;;;20.95;33.78;100084.79;103572;1317;59581;-80
2023/03/08 09:29:58;;;;;;;;;;;;;;;20.97;33.71;100083.91;103737;1317;59666;-80
2023/03/08 09:32:23;;;;;;;;;;;;;;;20.96;33.59;100080.27;103662;1317;60252;-80
2023/03/08 09:34:50;;;;;;;;;;;;;;;20.95;33.56;100079.02;103083;1317;74616;-80
2023/03/08 09:37:16;;;;;;;;;;;;;;;20.96;33.58;100080.75;102630;1318;61352;-80
2023/03/08 09:39:42;;;;;;;;;;;;;;;20.98;33.58;100092.04;102582;1309;61391;-82
2023/03/08 09:42:17;;;;;;;;;;;;;;;21.01;33.72;100097.38;103041;1308;59597;-81
2023/03/08 09:44:56;;;;;;;;;;;;;;;21.03;33.84;100095.77;103179;1308;75501;-81
2023/03/08 09:47:24;;;;;;;;;;;;;;;21.03;33.81;100092.84;103058;1308;61239;-83
2023/03/08 09:49:51;;;;;;;;;;;;;;;21.04;33.84;100093.69;103228;1308;61240;-81
2023/03/08 09:52:37;;;;;;;;;;;;;;;21.06;33.79;100095.15;103029;1311;72303;-81
2023/03/08 09:55:03;;;;;;;;;;;;;;;21.07;33.77;100097.70;102912;1308;73449;-80
2023/03/08 09:57:33;;;;;;;;;;;;;;;21.07;33.76;100097.16;102903;1308;60428;-81
2023/03/08 10:00:05;;;;;;;;;;;;;;;21.07;33.72;100095.90;103103;1308;60326;-80
2023/03/08 10:02:34;;;;;;;;;;;;;;;21.06;33.50;100095.83;102423;1311;72679;-80
2023/03/08 10:05:02;;;;;;;;;;;;;;;21.03;33.58;100092.86;102768;1311;74718;-80
2023/03/08 10:07:45;;;;;;;;;;;;;;;21.03;33.53;100089.13;102583;1311;61422;-81
2023/03/08 10:10:22;;;;;;;;;;;;;;;20.99;33.34;100090.71;102515;1311;61160;-82
2023/03/08 10:12:54;;;;;;;;;;;;;;;20.97;33.27;100093.39;102594;1311;72605;-81
2023/03/08 10:15:21;;;;;;;;;;;;;;;20.93;33.49;100094.02;102504;1312;73944;-81
2023/03/08 10:17:59;;;;;;;;;;;;;;;20.95;33.64;100094.60;102574;1312;61352;-81
2023/03/08 10:20:25;;;;;;;;;;;;;;;20.97;33.55;100090.66;102739;1314;61460;-81
2023/03/08 10:22:59;;;;;;;;;;;;;;;20.99;33.45;100087.32;102595;1311;73228;-81
2023/03/08 10:25:33;;;;;;;;;;;;;;;20.99;33.47;100084.10;102635;1311;75415;-82
2023/03/08 10:28:01;;;;;;;;;;;;;;;21.01;33.48;100085.70;102674;1311;61412;-81
2023/03/08 10:30:30;;;;;;;;;;;;;;;21.01;33.27;100081.95;102761;1311;61849;-81
2023/03/08 10:32:58;;;;;;;;;;;;;;;21.00;33.33;100078.42;102743;1312;73428;-80
2023/03/08 10:35:32;;;;;;;;;;;;;;;21.00;33.22;100079.74;104012;1312;75642;-81
2023/03/08 10:37:58;;;;;;;;;;;;;;;20.98;33.05;100079.33;104060;1311;60987;-81
2023/03/08 10:40:25;;;;;;;;;;;;;;;20.99;33.22;100077.28;104077;1311;59625;-82
2023/03/08 10:42:52;;;;;;;;;;;;;;;21.02;33.29;100082.63;104020;1311;73604;-81
2023/03/08 10:45:24;;;;;;;;;;;;;;;21.04;33.20;100068.98;102741;1316;75804;-81
2023/03/08 10:47:57;;;;;;;;;;;;;;;21.06;33.14;100066.84;102876;1311;62662;-81
2023/03/08 10:50:24;;;;;;;;;;;;;;;21.08;33.03;100064.74;102683;1311;61571;-81
2023/03/08 10:52:49;;;;;;;;;;;;;;;21.08;33.16;100058.64;103061;1308;72645;-80
2023/03/08 10:55:16;;;;;;;;;;;;;;;21.09;33.05;100054.08;103107;1308;61421;-81
2023/03/08 10:57:46;;;;;;;;;;;;;;;21.10;32.96;100051.66;103102;1308;61435;-80
2023/03/08 11:00:21;;;;;;;;;;;;;;;21.10;33.06;100056.14;103091;1308;61428;-80
2023/03/08 11:02:47;;;;;;;;;;;;;;;21.08;32.80;100053.23;102891;1308;73535;-82
2023/03/08 11:05:17;;;;;;;;;;;;;;;21.04;32.70;100050.05;102746;1308;61352;-82
2023/03/08 11:07:48;;;;;;;;;;;;;;;21.03;32.95;100049.36;102734;1309;61244;-81
2023/03/08 11:10:14;;;;;;;;;;;;;;;21.05;32.88;100041.36;102647;1309;61190;-82
2023/03/08 11:12:40;;;;;;;;;;;;;;;21.06;32.78;100033.60;102660;1311;61317;-82
2023/03/08 11:15:12;;;;;;;;;;;;;;;21.03;32.60;100029.38;102633;1309;61410;-81
2023/03/08 11:17:40;;;;;;;;;;;;;;;20.97;32.69;100022.67;102665;1308;61448;-82
2023/03/08 11:20:19;;;;;;;;;;;;;;;20.96;32.60;100016.77;102751;1308;61267;-79
2023/03/08 11:22:57;;;;;;;;;;;;;;;20.95;32.55;100017.00;102727;1308;72730;-80
2023/03/08 11:25:42;;;;;;;;;;;;;;;20.97;32.68;100016.11;103717;1308;74773;-80
2023/03/08 11:28:20;;;;;;;;;;;;;;;20.97;32.66;100012.84;103707;1308;61201;-80
2023/03/08 11:31:05;;;;;;;;;;;;;;;20.98;32.55;100006.94;103565;1308;60413;-80
2023/03/08 11:33:36;;;;;;;;;;;;;;;21.01;32.39;100008.42;103623;1311;73737;-81
2023/03/08 11:36:05;;;;;;;;;;;;;;;21.00;32.20;99997.58;103606;1309;75320;-80
2023/03/08 11:38:31;;;;;;;;;;;;;;;21.00;32.28;100003.66;102884;1310;61298;-80
2023/03/08 11:41:00;;;;;;;;;;;;;;;21.02;32.21;100000.10;102852;1308;61339;-79
2023/03/08 11:43:46;;;;;;;;;;;;;;;21.05;32.08;100000.96;102940;1310;73872;-82
2023/03/08 11:46:15;;;;;;;;;;;;;;;21.06;32.08;100003.55;102984;1309;74580;-81
2023/03/08 11:48:41;;;;;;;;;;;;;;;21.06;31.86;100003.67;102706;1311;61485;-80
2023/03/08 11:51:33;;;;;;;;;;;;;;;21.06;31.84;100004.25;102971;1308;63471;-80
2023/03/08 11:54:07;;;;;;;;;;;;;;;21.05;31.72;100000.77;102228;1315;72903;-81
2023/03/08 11:57:05;;;;;;;;;;;;;;;21.05;31.80;100003.40;102120;1315;75021;-79
2023/03/08 11:59:43;;;;;;;;;;;;;;;21.07;31.79;100001.64;101674;1322;61397;-81
2023/03/08 12:02:28;;;;;;;;;;;;;;;21.08;31.65;100005.52;101531;1323;61240;-80
2023/03/08 12:05:04;;;;;;;;;;;;;;;21.11;31.73;99998.70;101605;1323;73017;-80
2023/03/08 12:07:51;;;;;;;;;;;;;;;21.13;31.74;99998.48;101534;1323;74845;-81
2023/03/08 12:10:27;;;;;;;;;;;;;;;21.11;31.57;99987.75;101546;1323;61379;-81
2023/03/08 12:12:53;;;;;;;;;;;;;;;21.01;31.52;99981.41;102484;1323;60638;-81
2023/03/08 12:15:32;;;;;;;;;;;;;;;20.97;31.41;99981.43;102643;1326;59757;-80
2023/03/08 12:18:10;;;;;;;;;;;;;;;20.95;31.37;99979.05;102596;1322;74602;-80
2023/03/08 12:20:37;;;;;;;;;;;;;;;20.96;31.34;99975.46;102535;1322;61352;-81
2023/03/08 12:23:07;;;;;;;;;;;;;;;20.97;31.43;99976.01;102492;1323;60075;-79
2023/03/08 12:25:33;;;;;;;;;;;;;;;21.00;31.36;99965.07;102499;1326;72437;-82
2023/03/08 12:28:04;;;;;;;;;;;;;;;21.02;31.33;99959.64;102496;1323;59579;-82
2023/03/08 12:30:36;;;;;;;;;;;;;;;21.07;31.36;99952.49;102629;1316;61351;-82
2023/03/08 12:33:02;;;;;;;;;;;;;;;21.07;31.19;99955.33;102958;1317;61375;-82